createdAt,value
2023-03-17T00:01:56.042Z,61.09
2023-03-17T00:06:59.779Z,61.08
2023-03-17T00:12:01.678Z,61.26
2023-03-17T00:17:03.607Z,60.79
2023-03-17T00:22:13.570Z,61.45
2023-03-17T00:27:16.854Z,61.35
2023-03-17T00:32:19.386Z,61.10
2023-03-17T00:37:22.957Z,61.39
2023-03-17T00:42:24.672Z,61.15
2023-03-17T00:47:26.681Z,61.53
2023-03-17T00:52:29.706Z,61.80
2023-03-17T00:57:31.401Z,61.59
2023-03-17T01:02:33.289Z,61.62
2023-03-17T01:07:37.105Z,61.31
2023-03-17T01:12:38.943Z,61.30
2023-03-17T01:17:41.691Z,61.58
2023-03-17T01:22:45.202Z,61.71
2023-03-17T01:27:47.081Z,61.85
2023-03-17T01:32:48.918Z,62.05
2023-03-17T01:37:52.245Z,62.33
2023-03-17T01:42:54.829Z,62.05
2023-03-17T01:47:56.561Z,62.24
2023-03-17T01:52:59.564Z,62.37
2023-03-17T01:58:01.344Z,62.85
2023-03-17T02:03:03.850Z,63.22
2023-03-17T02:08:11.106Z,62.87
2023-03-17T02:13:12.985Z,62.79
2023-03-17T02:18:15.424Z,62.60
2023-03-17T02:23:21.027Z,62.78
2023-03-17T02:28:25.885Z,63.30
2023-03-17T02:33:27.719Z,63.32
2023-03-17T02:38:31.784Z,63.46
2023-03-17T02:43:35.823Z,63.26
2023-03-17T02:48:37.989Z,63.27
2023-03-17T02:53:41.067Z,63.64
2023-03-17T02:58:42.812Z,64.19
2023-03-17T03:03:44.548Z,64.53
2023-03-17T03:08:47.769Z,64.44
2023-03-17T03:13:49.641Z,64.04
2023-03-17T03:18:51.502Z,64.34
2023-03-17T03:23:54.811Z,64.20
2023-03-17T03:28:58.347Z,64.32
2023-03-17T03:34:00.215Z,65.15
2023-03-17T03:39:03.499Z,66.77
2023-03-17T03:44:05.554Z,67.61
2023-03-17T03:49:07.439Z,66.95
2023-03-17T03:54:10.463Z,67.35
2023-03-17T03:59:12.594Z,67.05
2023-03-17T04:04:14.276Z,67.65
2023-03-17T04:09:17.530Z,67.77
2023-03-17T04:14:19.497Z,68.09
2023-03-17T04:19:24.039Z,68.62
2023-03-17T04:24:27.734Z,69.23
2023-03-17T04:29:29.553Z,69.33
2023-03-17T04:34:31.287Z,69.36
2023-03-17T04:39:34.342Z,70.61
2023-03-17T04:44:36.512Z,71.23
2023-03-17T04:49:38.437Z,71.55
2023-03-17T04:54:42.189Z,72.38
2023-03-17T04:59:44.197Z,72.66
2023-03-17T05:04:46.109Z,72.81
2023-03-17T05:09:49.160Z,72.61
2023-03-17T05:14:50.882Z,73.10
2023-03-17T05:19:52.614Z,73.12
2023-03-17T05:24:55.673Z,73.60
2023-03-17T05:29:57.658Z,74.39
2023-03-17T05:34:59.429Z,73.77
2023-03-17T05:40:03.073Z,73.76
2023-03-17T05:45:05.704Z,74.91
2023-03-17T05:50:09.407Z,74.95
2023-03-17T05:55:12.447Z,75.77
2023-03-17T06:00:16.181Z,74.21
2023-03-17T06:05:18.031Z,73.72
2023-03-17T06:10:21.407Z,73.76
2023-03-17T06:15:23.116Z,73.15
2023-03-17T06:20:25.078Z,72.71
2023-03-17T06:25:28.272Z,71.69
2023-03-17T06:30:30.528Z,70.73
2023-03-17T06:35:33.202Z,70.13
2023-03-17T06:40:36.921Z,69.04
2023-03-17T06:45:38.869Z,67.83
2023-03-17T06:50:40.649Z,67.09
2023-03-17T06:55:43.745Z,66.54
2023-03-17T07:00:45.490Z,65.10
2023-03-17T07:05:47.719Z,61.15
2023-03-17T07:10:51.445Z,54.90
2023-03-17T07:15:55.361Z,52.34
2023-03-17T07:20:57.371Z,48.05
2023-03-17T07:26:00.536Z,46.85
2023-03-17T07:31:02.796Z,44.90
2023-03-17T07:36:07.089Z,39.59
2023-03-17T07:41:10.822Z,34.39
2023-03-17T07:46:12.715Z,30.29
2023-03-17T07:51:15.443Z,26.93
2023-03-17T07:56:18.506Z,26.26
2023-03-17T08:01:20.219Z,25.05
2023-03-17T08:06:22.096Z,25.23
2023-03-17T08:11:25.112Z,26.44
2023-03-17T08:16:27.559Z,24.93
2023-03-17T08:21:29.288Z,23.76
2023-03-17T08:26:32.499Z,24.87
2023-03-17T08:31:34.383Z,25.92
2023-03-17T08:36:36.123Z,26.78
2023-03-17T08:41:39.150Z,27.88
2023-03-17T08:46:40.934Z,28.37
2023-03-17T08:51:43.928Z,29.28
2023-03-17T08:56:47.006Z,29.19
2023-03-17T09:01:48.741Z,28.51
2023-03-17T09:07:02.869Z,27.54
2023-03-17T09:12:07.322Z,26.33
2023-03-17T09:17:09.624Z,25.97
2023-03-17T09:22:13.336Z,25.00
2023-03-17T09:27:16.356Z,25.86
2023-03-17T09:32:18.056Z,26.60
2023-03-17T09:37:19.746Z,26.38
2023-03-17T09:42:34.765Z,24.99
2023-03-17T09:47:56.554Z,22.69
2023-03-17T09:52:58.395Z,21.33
2023-03-17T09:58:03.331Z,19.44
2023-03-17T10:03:06.228Z,19.80
2023-03-17T10:08:28.942Z,20.03
2023-03-17T10:13:42.506Z,20.22
2023-03-17T10:18:48.151Z,19.80
2023-03-17T10:23:49.804Z,20.16
2023-03-17T10:28:52.809Z,21.09
2023-03-17T10:33:54.469Z,21.37
2023-03-17T10:38:56.395Z,21.78
2023-03-17T10:43:59.431Z,22.66
2023-03-17T10:49:05.502Z,22.54
2023-03-17T10:54:09.506Z,23.05
2023-03-17T10:59:17.825Z,23.64
2023-03-17T11:04:26.413Z,24.23
2023-03-17T11:09:30.430Z,23.73
2023-03-17T11:14:33.589Z,25.63
2023-03-17T11:19:43.646Z,26.65
2023-03-17T11:24:51.588Z,28.53
2023-03-17T11:30:14.925Z,29.99
2023-03-17T11:35:24.327Z,30.58
2023-03-17T11:40:29.448Z,31.48
2023-03-17T11:45:33.569Z,33.08
2023-03-17T11:50:39.241Z,32.80
2023-03-17T11:55:43.424Z,33.67
2023-03-17T12:00:50.710Z,34.12
2023-03-17T12:05:55.553Z,34.80
2023-03-17T12:10:57.725Z,35.04
2023-03-17T12:16:04.308Z,35.09
2023-03-17T12:21:09.538Z,34.60
2023-03-17T12:26:12.305Z,35.13
2023-03-17T12:31:17.534Z,35.23
2023-03-17T12:36:19.294Z,34.86
2023-03-17T12:41:28.878Z,35.12
2023-03-17T12:46:53.970Z,35.31
2023-03-17T12:52:01.435Z,36.11
2023-03-17T12:57:04.370Z,36.23
2023-03-17T13:02:15.508Z,35.68
2023-03-17T13:07:18.923Z,35.33
2023-03-17T13:12:58.304Z,35.71
2023-03-17T13:18:36.702Z,34.77
2023-03-17T13:23:42.080Z,34.44
2023-03-17T13:28:47.210Z,35.03
2023-03-17T13:33:51.325Z,35.92
2023-03-17T13:39:37.357Z,35.56
2023-03-17T13:45:07.091Z,36.04
2023-03-17T13:50:12.514Z,37.21
2023-03-17T13:55:36.614Z,37.07
2023-03-17T14:00:38.817Z,37.14
2023-03-17T14:05:40.575Z,37.41
2023-03-17T14:10:44.565Z,38.04
2023-03-17T14:15:48.607Z,38.23
2023-03-17T14:20:53.577Z,38.31
2023-03-17T14:25:56.896Z,39.00
2023-03-17T14:31:00.052Z,39.24
2023-03-17T14:36:02.676Z,39.59
2023-03-17T14:41:07.876Z,39.48
2023-03-17T14:46:13.676Z,39.77
2023-03-17T14:51:23.234Z,38.52
2023-03-17T14:56:31.595Z,37.14
2023-03-17T15:01:36.219Z,36.87
2023-03-17T15:06:47.050Z,37.37
2023-03-17T15:11:50.223Z,37.55
2023-03-17T15:16:52.435Z,37.46
2023-03-17T15:21:56.985Z,37.56
2023-03-17T15:27:01.298Z,37.42
2023-03-17T15:32:10.273Z,38.28
2023-03-17T15:37:16.065Z,38.27
2023-03-17T15:42:20.268Z,38.83
2023-03-17T15:47:23.282Z,38.89
2023-03-17T15:52:25.675Z,39.40
2023-03-17T15:57:28.885Z,40.47
2023-03-17T16:02:31.742Z,40.20
2023-03-17T16:07:34.089Z,41.17
2023-03-17T16:12:37.173Z,40.86
2023-03-17T16:17:39.158Z,41.01
2023-03-17T16:22:42.050Z,41.05
2023-03-17T16:27:45.187Z,42.38
2023-03-17T16:32:47.257Z,43.54
2023-03-17T16:37:51.815Z,46.63
2023-03-17T16:42:54.909Z,46.02
2023-03-17T16:47:57.067Z,47.26
2023-03-17T16:52:58.996Z,46.45
2023-03-17T16:58:03.872Z,47.75
2023-03-17T17:03:05.640Z,46.08
2023-03-17T17:08:07.405Z,47.39
2023-03-17T17:13:11.422Z,47.61
2023-03-17T17:18:14.509Z,47.23
2023-03-17T17:23:18.652Z,47.21
2023-03-17T17:28:22.646Z,47.28
2023-03-17T17:33:25.860Z,46.19
2023-03-17T17:38:28.787Z,46.27
2023-03-17T17:43:31.994Z,46.43
2023-03-17T17:48:34.295Z,46.54
2023-03-17T17:53:36.783Z,46.41
2023-03-17T17:58:39.793Z,47.29
2023-03-17T18:03:43.188Z,47.26
2023-03-17T18:08:45.562Z,49.32
2023-03-17T18:13:48.653Z,48.59
2023-03-17T18:18:50.676Z,52.00
2023-03-17T18:23:55.198Z,52.58
2023-03-17T18:28:58.381Z,53.45
2023-03-17T18:34:03.042Z,56.12
2023-03-17T18:39:04.872Z,57.62
2023-03-17T18:44:10.010Z,57.13
2023-03-17T18:49:11.692Z,58.47
2023-03-17T18:54:13.604Z,56.87
2023-03-17T18:59:16.633Z,56.50
2023-03-17T19:04:18.318Z,54.71
2023-03-17T19:09:20.980Z,53.71
2023-03-17T19:14:24.511Z,54.22
2023-03-17T19:19:26.202Z,54.19
2023-03-17T19:24:28.005Z,54.44
2023-03-17T19:29:32.480Z,55.09
2023-03-17T19:34:34.213Z,56.25
2023-03-17T19:39:37.689Z,56.63
2023-03-17T19:44:41.201Z,56.61
2023-03-17T19:49:42.976Z,57.06
2023-03-17T19:54:45.942Z,57.66
2023-03-17T19:59:49.056Z,57.91
2023-03-17T20:04:51.123Z,58.66
2023-03-17T20:09:53.975Z,59.47
2023-03-17T20:14:57.066Z,58.55
2023-03-17T20:19:58.772Z,59.57
2023-03-17T20:25:00.628Z,59.92
2023-03-17T20:30:05.054Z,59.65
2023-03-17T20:35:08.263Z,60.20
2023-03-17T20:40:11.268Z,59.89
2023-03-17T20:45:14.948Z,58.90
2023-03-17T20:50:16.808Z,58.37
2023-03-17T20:55:19.616Z,59.35
2023-03-17T21:00:23.424Z,59.84
2023-03-17T21:05:26.205Z,59.65
2023-03-17T21:10:28.160Z,59.06
2023-03-17T21:15:31.419Z,58.67
2023-03-17T21:20:34.263Z,58.52
2023-03-17T21:25:36.192Z,60.39
2023-03-17T21:30:42.159Z,59.22
2023-03-17T21:35:43.964Z,59.04
2023-03-17T21:40:46.151Z,59.10
2023-03-17T21:45:49.445Z,59.24
2023-03-17T21:50:51.186Z,59.17
2023-03-17T21:55:53.174Z,58.91
2023-03-17T22:00:56.248Z,59.83
2023-03-17T22:05:58.648Z,59.88
2023-03-17T22:11:00.360Z,60.45
2023-03-17T22:16:04.219Z,60.33
2023-03-17T22:21:06.193Z,59.39
2023-03-17T22:26:09.185Z,59.09
2023-03-17T22:31:13.069Z,59.29
2023-03-17T22:36:15.240Z,59.42
2023-03-17T22:41:17.910Z,58.90
2023-03-17T22:46:24.299Z,59.77
2023-03-17T22:51:26.745Z,62.38
2023-03-17T22:56:28.427Z,63.73
2023-03-17T23:01:31.774Z,65.08
2023-03-17T23:06:35.128Z,65.20
2023-03-17T23:11:37.398Z,64.37
2023-03-17T23:16:40.805Z,64.61
2023-03-17T23:21:42.517Z,62.38
2023-03-17T23:26:44.491Z,61.83
2023-03-17T23:31:47.569Z,61.27
2023-03-17T23:36:49.285Z,60.79
2023-03-17T23:41:51.296Z,60.63
2023-03-17T23:46:54.331Z,60.11
2023-03-17T23:51:56.023Z,60.55
2023-03-17T23:56:57.694Z,60.60
